Time;durP1;ratioP1;P1;durP2;ratioP2;P2;SDS_P1;SDS_P2;PMS_P1;PMS_P2;Temp;Humidity;BMP_temperature;BMP_pressure;BME280_temperature;BME280_humidity;BME280_pressure;Samples;Min_cycle;Max_cycle;Signal;HPM_P1;HPM_P2
2023/08/21 00:00:52;;;;;;;14.00;5.70;;;;;;;27.15;38.84;99304.74;78167;1300;3029097;-65
2023/08/21 00:03:18;;;;;;;17.10;6.30;;;;;;;27.13;38.75;99305.23;79372;1297;3013098;-64
2023/08/21 00:05:45;;;;;;;14.30;5.70;;;;;;;27.13;38.80;99303.38;79377;1298;3013695;-65
2023/08/21 00:08:13;;;;;;;15.10;6.00;;;;;;;27.16;38.84;99300.77;78074;1297;3025702;-64
2023/08/21 00:10:40;;;;;;;16.50;5.70;;;;;;;27.14;39.08;99298.42;79498;1300;3013234;-63
2023/08/21 00:13:07;;;;;;;18.00;6.00;;;;;;;27.10;39.42;99302.20;79376;1300;3012926;-64
2023/08/21 00:15:37;;;;;;;13.30;6.10;;;;;;;27.08;39.68;99300.05;77981;1297;3053314;-63
2023/08/21 00:18:05;;;;;;;12.60;6.10;;;;;;;27.06;39.71;99301.29;79341;1297;3011611;-63
2023/08/21 00:20:34;;;;;;;8.80;5.00;;;;;;;27.01;39.79;99300.98;78884;1302;3011721;-64
2023/08/21 00:23:01;;;;;;;14.90;6.20;;;;;;;26.98;40.02;99301.43;79177;1302;3013122;-65
2023/08/21 00:25:27;;;;;;;14.70;5.90;;;;;;;26.94;40.18;99303.05;79419;1300;3011708;-65
2023/08/21 00:27:55;;;;;;;10.90;5.70;;;;;;;26.89;40.46;99299.96;78157;1299;3026613;-66
2023/08/21 00:30:21;;;;;;;16.20;6.40;;;;;;;26.86;40.41;99300.00;79449;1297;3013330;-66
2023/08/21 00:32:48;;;;;;;14.70;7.10;;;;;;;26.82;40.82;99299.91;79422;1300;3013235;-67
2023/08/21 00:35:16;;;;;;;16.50;7.00;;;;;;;26.77;41.61;99301.17;78202;1300;3025938;-66
2023/08/21 00:37:43;;;;;;;15.00;6.50;;;;;;;26.67;42.64;99303.89;79419;1300;3013275;-64
2023/08/21 00:40:11;;;;;;;21.00;7.40;;;;;;;26.52;44.03;99302.19;79202;1300;3011965;-68
2023/08/21 00:42:39;;;;;;;13.30;5.80;;;;;;;26.42;42.68;99303.27;78206;1300;3052354;-64
2023/08/21 00:45:08;;;;;;;15.50;6.50;;;;;;;26.43;42.39;99301.44;79349;1301;3013148;-68
2023/08/21 00:47:35;;;;;;;20.00;6.50;;;;;;;26.40;43.08;99303.96;79400;1296;3013488;-67
2023/08/21 00:50:03;;;;;;;14.40;6.70;;;;;;;26.35;44.46;99307.29;78184;1297;3049787;-66
2023/08/21 00:52:31;;;;;;;19.00;6.80;;;;;;;26.20;46.98;99307.45;79467;1298;3013009;-67
2023/08/21 00:54:57;;;;;;;18.40;7.10;;;;;;;26.07;46.75;99300.09;79313;1300;3011761;-65
2023/08/21 00:57:25;;;;;;;14.30;6.00;;;;;;;26.01;43.76;99300.35;77976;1303;3051842;-66
2023/08/21 00:59:51;;;;;;;27.00;12.30;;;;;;;26.03;42.40;99301.12;79162;1303;3013521;-70
2023/08/21 01:02:19;;;;;;;83.00;35.40;;;;;;;26.02;43.57;99304.41;79375;1294;3011890;-70
2023/08/21 01:04:47;;;;;;;99.10;39.90;;;;;;;25.94;44.54;99297.46;78143;1297;3025301;-65
2023/08/21 01:07:13;;;;;;;201.50;76.50;;;;;;;25.96;43.87;99302.48;79395;1296;3013790;-67
2023/08/21 01:09:49;;;;;;;214.50;82.60;;;;;;;25.97;44.56;99297.08;79372;1301;3012735;-66
2023/08/21 01:12:33;;;;;;;87.10;35.70;;;;;;;25.95;44.68;99296.73;78194;1297;3052710;-64
2023/08/21 01:15:06;;;;;;;125.90;47.60;;;;;;;25.96;44.28;99296.19;78106;1302;3068871;-64
2023/08/21 01:17:36;;;;;;;77.50;31.00;;;;;;;25.76;46.35;99296.27;79399;1299;3011511;-64
2023/08/21 01:20:06;;;;;;;81.70;32.70;;;;;;;25.72;45.41;99295.04;78226;1300;3056874;-67
2023/08/21 01:22:37;;;;;;;65.40;28.10;;;;;;;25.79;43.89;99298.07;79399;1295;3013071;-64
2023/08/21 01:25:06;;;;;;;56.10;24.20;;;;;;;25.84;45.09;99293.67;78203;1298;3054034;-67
2023/08/21 01:27:33;;;;;;;70.80;32.30;;;;;;;25.80;45.37;99295.80;79354;1299;3014451;-65
2023/08/21 01:30:00;;;;;;;52.80;21.90;;;;;;;25.77;45.88;99292.22;79326;1297;3011708;-65
2023/08/21 01:32:53;;;;;;;40.00;17.50;;;;;;;25.70;46.94;99295.31;78362;1297;3068169;-67
2023/08/21 01:35:21;;;;;;;;;;;;;;;25.54;48.16;99296.64;78150;1297;3053473;-66
2023/08/21 01:37:48;;;;;;;28.50;13.90;;;;;;;25.43;48.57;99291.80;79479;1297;3018531;-68
2023/08/21 01:40:22;;;;;;;32.70;15.30;;;;;;;25.37;49.34;99297.48;79403;1296;3012868;-66
2023/08/21 01:42:52;;;;;;;25.20;12.60;;;;;;;25.31;49.36;99294.30;78181;1300;3050548;-65
2023/08/21 01:45:19;;;;;;;22.00;11.50;;;;;;;25.24;50.01;99292.02;79350;1297;3012435;-68
2023/08/21 01:47:45;;;;;;;23.30;13.00;;;;;;;25.21;50.50;99291.16;79465;1298;3013230;-70
2023/08/21 01:50:13;;;;;;;21.70;11.70;;;;;;;25.20;49.87;99289.53;78186;1299;3049501;-67
2023/08/21 01:52:40;;;;;;;23.10;10.60;;;;;;;25.15;50.41;99294.29;79430;1297;3013175;-66
2023/08/21 01:55:10;;;;;;;18.70;9.40;;;;;;;25.13;50.50;99294.10;79423;1297;3011344;-67
2023/08/21 01:57:38;;;;;;;19.60;8.10;;;;;;;25.09;50.41;99290.14;78170;1301;3050725;-64
2023/08/21 02:00:06;;;;;;;20.10;7.70;;;;;;;25.10;50.65;99289.36;79374;1303;3013476;-66
2023/08/21 02:02:42;;;;;;;20.50;8.70;;;;;;;25.09;50.14;99289.23;78171;1300;3068893;-65
2023/08/21 02:05:09;;;;;;;27.20;12.10;;;;;;;25.02;50.73;99288.49;79442;1300;3013447;-64
2023/08/21 02:07:35;;;;;;;62.00;30.10;;;;;;;24.99;51.09;99290.40;79375;1296;3012648;-65
2023/08/21 02:10:04;;;;;;;147.90;66.30;;;;;;;24.95;51.38;99284.91;78252;1297;3025750;-64
2023/08/21 02:12:30;;;;;;;161.60;81.70;;;;;;;24.89;51.81;99288.86;79499;1298;3013134;-64
2023/08/21 02:14:57;;;;;;;179.60;82.60;;;;;;;24.83;52.25;99289.83;79407;1300;3011617;-65
2023/08/21 02:17:28;;;;;;;158.10;74.60;;;;;;;24.76;52.60;99286.58;78108;1294;3067712;-64
2023/08/21 02:19:54;;;;;;;149.00;65.40;;;;;;;24.71;52.34;99285.89;79396;1300;3013599;-66
2023/08/21 02:22:23;;;;;;;120.90;56.10;;;;;;;24.69;52.20;99282.48;78942;1295;3011836;-66
2023/08/21 02:24:49;;;;;;;93.60;45.30;;;;;;;24.71;51.80;99287.58;79450;1298;3018445;-66
2023/08/21 02:27:16;;;;;;;84.40;38.80;;;;;;;24.74;51.03;99284.69;79466;1295;3013263;-67
2023/08/21 02:29:44;;;;;;;70.70;34.70;;;;;;;24.81;50.25;99286.00;78274;1299;3028443;-66
2023/08/21 02:32:10;;;;;;;62.30;28.20;;;;;;;24.87;49.64;99288.92;79511;1294;3020583;-66
2023/08/21 02:34:37;;;;;;;59.60;26.30;;;;;;;24.91;49.67;99284.99;79542;1301;3011639;-66
2023/08/21 02:37:05;;;;;;;49.30;24.50;;;;;;;24.94;49.27;99285.15;78411;1295;3026692;-70
2023/08/21 02:39:31;;;;;;;57.60;25.00;;;;;;;24.96;48.98;99286.29;79553;1301;3013678;-67
2023/08/21 02:41:58;;;;;;;53.40;22.10;;;;;;;24.98;48.66;99289.41;79411;1299;3013070;-67
2023/08/21 02:44:25;;;;;;;51.60;23.60;;;;;;;24.98;48.34;99290.27;78277;1300;3026269;-69
2023/08/21 02:46:52;;;;;;;50.50;22.80;;;;;;;24.96;48.22;99285.17;79596;1300;3013177;-67
2023/08/21 02:49:18;;;;;;;41.70;18.60;;;;;;;24.94;48.17;99286.34;79450;1301;3013016;-68
2023/08/21 02:51:47;;;;;;;45.20;18.50;;;;;;;24.95;47.86;99286.95;78260;1295;3027667;-68
2023/08/21 02:54:13;;;;;;;27.00;12.80;;;;;;;24.96;47.47;99284.10;79510;1296;3018538;-68
2023/08/21 02:56:40;;;;;;;22.40;9.90;;;;;;;24.95;47.29;99278.63;79324;1297;3011534;-69
2023/08/21 02:59:08;;;;;;;23.80;9.20;;;;;;;24.95;47.28;99284.67;78172;1301;3026934;-70
2023/08/21 03:01:35;;;;;;;19.90;9.10;;;;;;;24.95;46.49;99281.65;79386;1294;3013743;-69
2023/08/21 03:04:01;;;;;;;20.20;8.90;;;;;;;24.97;46.64;99286.10;79500;1300;3011707;-72
2023/08/21 03:06:29;;;;;;;21.20;8.60;;;;;;;25.00;46.32;99284.92;78179;1297;3027117;-68
2023/08/21 03:08:56;;;;;;;22.00;10.20;;;;;;;24.98;46.73;99287.05;79415;1295;3012886;-67
2023/08/21 03:11:23;;;;;;;26.00;9.60;;;;;;;25.00;46.59;99281.48;79463;1298;3011724;-68
2023/08/21 03:13:50;;;;;;;21.20;8.60;;;;;;;25.05;46.47;99284.20;78265;1300;3027131;-70
2023/08/21 03:16:17;;;;;;;23.50;10.70;;;;;;;25.08;45.86;99280.61;79450;1297;3015781;-71
2023/08/21 03:18:55;;;;;;;28.50;12.20;;;;;;;25.07;45.53;99278.13;79379;1299;3012875;-69
2023/08/21 03:21:23;;;;;;;14.70;6.70;;;;;;;25.05;45.46;99275.46;78251;1294;3056464;-71
2023/08/21 03:23:58;;;;;;;19.10;8.30;;;;;;;25.04;44.78;99275.91;79449;1297;3013037;-71
2023/08/21 03:26:25;;;;;;;9.30;4.30;;;;;;;25.10;43.74;99276.83;78312;1298;3049832;-71
2023/08/21 03:28:53;;;;;;;10.00;4.50;;;;;;;25.18;43.23;99271.83;79677;1298;3013479;-70
2023/08/21 03:31:20;;;;;;;9.00;3.80;;;;;;;25.27;42.83;99270.54;79632;1298;3011945;-68
2023/08/21 03:33:48;;;;;;;11.80;4.10;;;;;;;25.36;42.42;99272.14;78379;1299;3051636;-71
2023/08/21 03:36:16;;;;;;;8.90;4.70;;;;;;;25.41;42.27;99274.77;79631;1294;3013323;-72
2023/08/21 03:38:42;;;;;;;15.70;4.70;;;;;;;25.43;42.53;99275.38;79556;1298;3011497;-71
2023/08/21 03:41:11;;;;;;;13.00;4.30;;;;;;;25.44;42.60;99267.59;78267;1294;3049598;-71
2023/08/21 03:43:37;;;;;;;11.90;4.90;;;;;;;25.44;42.81;99272.19;79443;1300;3012871;-68
2023/08/21 03:46:04;;;;;;;11.40;4.50;;;;;;;25.45;42.46;99271.16;79639;1294;3011942;-70
2023/08/21 03:48:32;;;;;;;10.80;5.20;;;;;;;25.49;42.62;99264.98;78332;1299;3051939;-70
2023/08/21 03:50:58;;;;;;;13.30;6.00;;;;;;;25.49;42.92;99267.10;79624;1294;3013385;-72
2023/08/21 03:53:25;;;;;;;12.90;5.40;;;;;;;25.50;43.05;99267.90;79681;1299;3011393;-69
2023/08/21 03:55:53;;;;;;;12.70;6.10;;;;;;;25.48;43.05;99272.96;78233;1294;3028110;-71
2023/08/21 03:58:20;;;;;;;17.40;5.60;;;;;;;25.45;43.35;99276.72;79439;1299;3013157;-70
2023/08/21 04:00:46;;;;;;;13.60;6.30;;;;;;;25.42;43.56;99276.80;79370;1295;3011755;-71
2023/08/21 04:03:14;;;;;;;16.90;6.40;;;;;;;25.37;44.21;99276.86;78413;1294;3025881;-69
2023/08/21 04:05:41;;;;;;;13.80;6.00;;;;;;;25.33;44.22;99274.65;79519;1295;3011684;-70
2023/08/21 04:08:07;;;;;;;14.90;6.90;;;;;;;25.35;44.17;99275.21;79550;1299;3011534;-70
2023/08/21 04:10:35;;;;;;;13.10;5.90;;;;;;;25.37;44.00;99276.56;78298;1294;3027047;-72
2023/08/21 04:13:02;;;;;;;21.80;6.40;;;;;;;25.37;44.16;99277.73;79657;1298;3013556;-70
2023/08/21 04:15:29;;;;;;;15.60;6.50;;;;;;;25.42;44.36;99278.43;79607;1299;3011839;-69
2023/08/21 04:17:58;;;;;;;16.30;6.00;;;;;;;25.43;44.41;99279.84;78378;1295;3051169;-73
2023/08/21 04:20:24;;;;;;;10.70;5.40;;;;;;;25.47;43.99;99279.04;79510;1295;3013725;-70
2023/08/21 04:22:51;;;;;;;19.80;6.80;;;;;;;25.51;43.96;99278.83;79421;1297;3011467;-69
2023/08/21 04:25:19;;;;;;;17.90;5.40;;;;;;;25.53;44.45;99281.46;78223;1298;3026389;-71
2023/08/21 04:27:45;;;;;;;16.30;5.90;;;;;;;25.54;44.27;99282.24;79561;1299;3013866;-69
2023/08/21 04:30:12;;;;;;;12.20;5.80;;;;;;;25.57;44.72;99284.95;79343;1297;3011331;-70
2023/08/21 04:32:40;;;;;;;13.20;6.30;;;;;;;25.58;44.98;99282.73;78260;1300;3025945;-68
2023/08/21 04:35:08;;;;;;;12.50;6.50;;;;;;;25.58;45.32;99279.72;79587;1294;3011577;-70
2023/08/21 04:37:37;;;;;;;17.10;7.00;;;;;;;25.60;45.64;99276.87;79399;1297;3013162;-69
2023/08/21 04:40:07;;;;;;;11.00;6.60;;;;;;;25.60;45.15;99278.24;78201;1298;3049695;-73
2023/08/21 04:42:34;;;;;;;12.90;6.90;;;;;;;25.63;45.25;99281.64;79479;1300;3011572;-64
2023/08/21 04:45:02;;;;;;;15.60;7.90;;;;;;;25.69;45.04;99277.17;79332;1299;3011788;-64
2023/08/21 04:47:32;;;;;;;20.70;8.90;;;;;;;25.76;45.17;99275.20;78034;1298;3051924;-65
2023/08/21 04:49:59;;;;;;;22.20;9.90;;;;;;;25.81;45.18;99278.14;79397;1296;3014478;-68
2023/08/21 04:52:27;;;;;;;22.00;9.40;;;;;;;25.89;45.27;99275.45;79202;1295;3013526;-64
2023/08/21 04:54:55;;;;;;;25.30;12.00;;;;;;;25.93;45.10;99275.64;78172;1299;3049987;-64
2023/08/21 04:57:22;;;;;;;23.00;11.00;;;;;;;26.01;45.64;99277.23;79300;1297;3013146;-64
2023/08/21 04:59:48;;;;;;;24.60;11.20;;;;;;;26.09;45.59;99277.41;79320;1295;3013536;-64
2023/08/21 05:02:16;;;;;;;33.30;10.80;;;;;;;26.17;45.02;99278.52;78201;1297;3026490;-64
2023/08/21 05:04:43;;;;;;;31.00;12.70;;;;;;;26.23;45.46;99281.42;79313;1295;3013234;-65
2023/08/21 05:07:10;;;;;;;24.30;12.20;;;;;;;26.27;45.41;99281.35;79483;1299;3011612;-66
2023/08/21 05:09:37;;;;;;;29.70;12.40;;;;;;;26.30;45.90;99282.29;78218;1297;3026609;-65
2023/08/21 05:12:05;;;;;;;28.50;12.50;;;;;;;26.33;46.04;99282.76;79422;1299;3013792;-64
2023/08/21 05:14:32;;;;;;;37.80;13.20;;;;;;;26.44;46.21;99280.85;79560;1297;3013018;-66
2023/08/21 05:17:00;;;;;;;35.90;13.90;;;;;;;26.52;46.64;99280.71;78150;1300;3051911;-66
2023/08/21 05:19:26;;;;;;;35.50;15.00;;;;;;;26.56;47.43;99283.42;79189;1297;3013375;-65
2023/08/21 05:21:53;;;;;;;30.70;15.30;;;;;;;26.51;48.89;99278.47;79454;1300;3011746;-66
2023/08/21 05:24:21;;;;;;;32.60;15.30;;;;;;;26.53;49.84;99273.05;78208;1299;3050440;-65
2023/08/21 05:26:51;;;;;;;36.20;16.50;;;;;;;26.51;50.22;99271.88;79440;1296;3013289;-65
2023/08/21 05:29:20;;;;;;;37.10;17.80;;;;;;;26.53;50.78;99276.70;79034;1297;3012998;-66
2023/08/21 05:31:47;;;;;;;34.50;17.10;;;;;;;26.51;51.82;99279.88;79344;1295;3013567;-66
2023/08/21 05:34:14;;;;;;;37.30;18.60;;;;;;;26.50;52.57;99285.92;79499;1296;3011929;-66
2023/08/21 05:36:42;;;;;;;39.20;18.80;;;;;;;26.50;52.72;99282.16;78207;1296;3026378;-64
2023/08/21 05:39:09;;;;;;;34.90;17.50;;;;;;;26.57;52.80;99275.71;79252;1295;3013311;-67
2023/08/21 05:41:35;;;;;;;37.40;17.70;;;;;;;26.72;52.08;99271.20;79451;1296;3011653;-64
2023/08/21 05:44:04;;;;;;;33.70;15.70;;;;;;;26.82;51.70;99277.14;78209;1297;3025476;-66
2023/08/21 05:46:31;;;;;;;33.90;15.60;;;;;;;26.88;51.61;99278.33;79517;1295;3013524;-66
2023/08/21 05:48:57;;;;;;;30.30;14.10;;;;;;;26.95;51.03;99278.05;79440;1295;3011922;-68
2023/08/21 05:51:25;;;;;;;28.10;12.50;;;;;;;27.03;50.45;99274.66;78303;1300;3048897;-64
2023/08/21 05:53:52;;;;;;;24.80;11.20;;;;;;;27.16;49.99;99277.74;79559;1298;3018357;-64
2023/08/21 05:56:18;;;;;;;25.80;10.20;;;;;;;27.27;49.29;99277.25;79410;1297;3011349;-65
2023/08/21 05:58:46;;;;;;;24.60;10.40;;;;;;;27.43;48.40;99277.36;78187;1297;3025130;-65
2023/08/21 06:01:13;;;;;;;19.20;8.40;;;;;;;27.56;47.53;99272.55;79286;1300;3012396;-63
2023/08/21 06:03:39;;;;;;;21.60;8.60;;;;;;;27.72;47.04;99273.94;79457;1300;3011531;-65
2023/08/21 06:06:36;;;;;;;24.90;9.00;;;;;;;27.89;46.39;99276.33;78202;1297;3050297;-65
2023/08/21 06:09:07;;;;;;;15.90;8.00;;;;;;;27.97;46.01;99276.23;79235;1296;3018996;-65
2023/08/21 06:11:35;;;;;;;17.80;8.50;;;;;;;28.14;46.24;99277.56;78008;1300;3051444;-67
2023/08/21 06:14:01;;;;;;;24.80;8.70;;;;;;;28.25;46.20;99278.58;79529;1299;3018506;-65
2023/08/21 06:16:28;;;;;;;22.50;9.00;;;;;;;28.29;46.37;99278.52;79493;1300;3013289;-65
2023/08/21 06:18:56;;;;;;;25.80;9.60;;;;;;;28.35;46.25;99275.75;78096;1297;3026598;-66
2023/08/21 06:21:23;;;;;;;26.70;10.00;;;;;;;28.32;46.41;99284.83;79390;1297;3018829;-65
2023/08/21 06:23:49;;;;;;;22.00;10.10;;;;;;;28.16;47.09;99284.70;79200;1297;3011733;-66
2023/08/21 06:26:17;;;;;;;24.30;8.60;;;;;;;28.05;46.98;99285.81;78262;1299;3026636;-65
2023/08/21 06:28:44;;;;;;;18.20;6.90;;;;;;;28.04;45.95;99286.20;79479;1300;3013187;-67
2023/08/21 06:31:10;;;;;;;16.80;7.80;;;;;;;27.99;45.88;99282.86;79492;1294;3013139;-67
2023/08/21 06:33:38;;;;;;;13.50;6.50;;;;;;;27.97;45.84;99282.38;78200;1299;3028131;-68
2023/08/21 06:36:05;;;;;;;31.70;8.00;;;;;;;27.95;46.44;99278.14;79424;1294;3013082;-64
2023/08/21 06:38:32;;;;;;;19.00;7.30;;;;;;;27.98;46.33;99273.84;79367;1296;3011517;-66
2023/08/21 06:41:00;;;;;;;16.40;6.70;;;;;;;28.11;45.70;99271.36;78176;1299;3051659;-66
2023/08/21 06:43:27;;;;;;;13.40;6.70;;;;;;;28.22;45.63;99266.54;79678;1297;3012975;-64
2023/08/21 06:45:54;;;;;;;20.80;7.10;;;;;;;28.33;45.13;99274.02;79483;1297;3011678;-68
2023/08/21 06:48:23;;;;;;;19.70;6.40;;;;;;;28.35;45.75;99281.95;78606;1300;3056562;-63
2023/08/21 06:50:49;;;;;;;17.10;5.60;;;;;;;28.27;45.98;99283.71;79532;1297;3013349;-68
2023/08/21 06:53:15;;;;;;;13.60;6.60;;;;;;;28.26;46.14;99281.10;81208;1296;3012172;-65
2023/08/21 06:55:47;;;;;;;13.80;6.60;;;;;;;28.36;46.26;99273.88;78227;1300;3025121;-64
2023/08/21 06:58:13;;;;;;;22.80;7.50;;;;;;;28.46;46.45;99274.13;79286;1299;3011773;-64
2023/08/21 07:00:42;;;;;;;17.10;7.80;;;;;;;28.61;46.40;99271.66;78851;1296;3011916;-66
2023/08/21 07:03:09;;;;;;;20.10;8.70;;;;;;;28.67;45.83;99272.80;79464;1297;3013858;-67
2023/08/21 07:05:35;;;;;;;19.40;8.70;;;;;;;28.76;45.72;99271.15;79394;1299;3011600;-65
2023/08/21 07:08:03;;;;;;;22.40;10.40;;;;;;;28.75;45.33;99278.84;78213;1296;3025416;-65
2023/08/21 07:10:31;;;;;;;15.80;8.60;;;;;;;28.79;44.68;99273.58;79528;1296;3013248;-65
2023/08/21 07:12:58;;;;;;;20.80;9.00;;;;;;;28.88;44.67;99272.08;79431;1300;3013222;-67
2023/08/21 07:15:26;;;;;;;14.20;7.70;;;;;;;28.91;44.05;99277.04;78162;1300;3068572;-64
2023/08/21 07:17:52;;;;;;;15.70;7.00;;;;;;;28.86;43.64;99271.63;79377;1296;3013165;-67
2023/08/21 07:20:19;;;;;;;14.90;6.90;;;;;;;28.98;43.83;99267.96;79363;1299;3011762;-67
2023/08/21 07:22:47;;;;;;;22.40;7.20;;;;;;;29.09;43.80;99272.63;78281;1298;3026891;-65
2023/08/21 07:25:13;;;;;;;12.90;5.60;;;;;;;29.19;43.64;99273.77;79264;1299;3012795;-66
2023/08/21 07:27:40;;;;;;;11.80;4.60;;;;;;;29.24;43.72;99271.36;79449;1300;3011626;-65
2023/08/21 07:30:08;;;;;;;11.10;4.40;;;;;;;29.29;43.70;99271.17;78260;1294;3026006;-64
2023/08/21 07:32:35;;;;;;;13.20;5.00;;;;;;;29.19;43.76;99270.90;79546;1299;3012380;-66
2023/08/21 07:35:01;;;;;;;16.60;5.00;;;;;;;29.26;44.33;99268.23;79400;1297;3013191;-67
2023/08/21 07:37:29;;;;;;;12.80;4.80;;;;;;;29.35;43.91;99271.88;75863;1298;3473765;-66
2023/08/21 07:39:57;;;;;;;16.00;5.60;;;;;;;29.28;43.92;99268.05;79568;1299;3013005;-65
2023/08/21 07:42:24;;;;;;;11.30;4.60;;;;;;;29.38;44.22;99271.82;79401;1299;3013568;-68
2023/08/21 07:44:51;;;;;;;16.40;5.50;;;;;;;29.46;44.46;99267.80;78143;1297;3067784;-69
2023/08/21 07:47:18;;;;;;;17.00;5.50;;;;;;;29.50;44.56;99273.16;79295;1299;3013548;-67
2023/08/21 07:49:44;;;;;;;17.00;5.10;;;;;;;29.39;44.50;99278.01;79518;1297;3012958;-70
2023/08/21 07:52:12;;;;;;;17.30;5.40;;;;;;;29.49;44.71;99276.80;78411;1294;3026599;-66
2023/08/21 07:54:39;;;;;;;14.90;5.30;;;;;;;29.60;44.52;99273.06;79501;1296;3013634;-67
2023/08/21 07:57:06;;;;;;;16.20;5.00;;;;;;;29.76;44.91;99271.09;79411;1299;3011606;-69
2023/08/21 07:59:34;;;;;;;17.40;5.20;;;;;;;29.86;44.83;99272.10;78144;1299;3027114;-68
2023/08/21 08:02:02;;;;;;;21.80;5.10;;;;;;;29.93;44.69;99270.45;79566;1294;3013089;-67
2023/08/21 08:04:29;;;;;;;16.80;5.50;;;;;;;29.97;44.71;99268.80;79406;1294;3011657;-67
2023/08/21 08:06:57;;;;;;;7.90;4.60;;;;;;;30.03;44.34;99274.64;78343;1300;3054060;-69
2023/08/21 08:09:23;;;;;;;11.10;4.40;;;;;;;30.02;43.34;99272.56;79436;1299;3013123;-68
2023/08/21 08:11:50;;;;;;;7.70;4.60;;;;;;;30.10;43.54;99270.55;79454;1298;3013005;-68
2023/08/21 08:14:18;;;;;;;21.90;5.60;;;;;;;30.15;43.87;99277.29;78270;1298;3028604;-67
2023/08/21 08:16:44;;;;;;;9.80;4.40;;;;;;;30.05;43.61;99270.48;79613;1300;3012561;-65
2023/08/21 08:19:11;;;;;;;11.10;5.40;;;;;;;29.98;43.83;99277.02;79427;1299;3011730;-65
2023/08/21 08:21:39;;;;;;;16.40;5.00;;;;;;;29.98;44.37;99274.17;78146;1299;3026476;-69
2023/08/21 08:24:06;;;;;;;14.90;5.60;;;;;;;30.15;44.91;99268.45;79709;1299;3012824;-69
2023/08/21 08:26:32;;;;;;;8.40;5.50;;;;;;;30.20;44.60;99269.15;79458;1300;3013278;-66
2023/08/21 08:29:00;;;;;;;11.70;5.60;;;;;;;30.26;45.04;99261.86;78262;1299;3027201;-67
2023/08/21 08:31:27;;;;;;;14.90;5.10;;;;;;;30.39;45.07;99258.78;79612;1297;3019379;-66
2023/08/21 08:33:54;;;;;;;9.70;4.90;;;;;;;30.52;44.88;99262.40;79483;1298;3011579;-68
2023/08/21 08:36:22;;;;;;;17.10;5.20;;;;;;;30.63;44.25;99261.42;78053;1296;3029585;-65
2023/08/21 08:38:49;;;;;;;12.70;5.00;;;;;;;30.57;43.98;99259.29;79575;1300;3018994;-67
2023/08/21 08:41:25;;;;;;;12.80;5.20;;;;;;;30.60;44.21;99262.05;79511;1299;3013356;-65
2023/08/21 08:43:52;;;;;;;9.10;5.00;;;;;;;30.72;43.72;99258.42;78165;1295;3069440;-67
2023/08/21 08:46:19;;;;;;;15.10;5.30;;;;;;;30.76;43.32;99260.08;79323;1297;3013678;-67
2023/08/21 08:48:46;;;;;;;12.20;4.90;;;;;;;30.80;43.00;99258.34;79478;1298;3011827;-66
2023/08/21 08:51:13;;;;;;;10.70;5.20;;;;;;;30.91;42.81;99256.64;78287;1300;3028192;-65
2023/08/21 08:53:40;;;;;;;10.70;5.30;;;;;;;31.00;43.06;99249.26;79391;1299;3013603;-69
2023/08/21 08:56:07;;;;;;;12.10;5.50;;;;;;;31.21;43.13;99250.07;79428;1300;3011715;-66
2023/08/21 08:58:35;;;;;;;11.10;6.10;;;;;;;31.39;42.53;99249.75;78224;1294;3028810;-65
2023/08/21 09:01:01;;;;;;;9.20;5.20;;;;;;;31.41;42.03;99243.50;79440;1294;3013117;-66
2023/08/21 09:03:28;;;;;;;9.80;5.30;;;;;;;31.43;41.71;99249.02;79483;1299;3011911;-68
2023/08/21 09:06:00;;;;;;;15.70;6.30;;;;;;;31.31;41.13;99248.86;78248;1299;3028649;-67
2023/08/21 09:08:26;;;;;;;18.10;6.10;;;;;;;31.35;41.29;99244.48;79577;1299;3011688;-68
2023/08/21 09:10:54;;;;;;;17.40;6.00;;;;;;;31.36;41.68;99242.51;78261;1300;3017703;-71
2023/08/21 09:13:21;;;;;;;11.30;5.20;;;;;;;31.31;41.50;99243.36;79530;1298;3013525;-67
2023/08/21 09:15:48;;;;;;;12.20;5.30;;;;;;;31.40;41.00;99242.94;79496;1297;3011580;-68
2023/08/21 09:18:16;;;;;;;19.20;5.40;;;;;;;31.49;40.56;99238.04;78260;1299;3055921;-68
2023/08/21 09:20:43;;;;;;;14.00;4.80;;;;;;;31.69;40.03;99232.81;79624;1297;3018426;-67
2023/08/21 09:23:17;;;;;;;10.60;4.80;;;;;;;31.70;39.27;99236.59;79581;1294;3011602;-71
2023/08/21 09:25:48;;;;;;;8.80;5.50;;;;;;;31.61;38.87;99233.91;78273;1300;3052384;-67
2023/08/21 09:28:20;;;;;;;12.10;5.60;;;;;;;31.61;39.26;99229.44;79512;1297;3011672;-67
2023/08/21 09:30:52;;;;;;;12.50;5.40;;;;;;;31.90;39.17;99229.20;78249;1297;3068196;-68
2023/08/21 09:33:22;;;;;;;7.40;5.40;;;;;;;31.94;38.82;99232.16;79486;1294;3011454;-69
2023/08/21 09:35:54;;;;;;;8.60;4.90;;;;;;;31.97;38.34;99231.14;78307;1295;3056228;-64
2023/08/21 09:38:20;;;;;;;14.00;5.50;;;;;;;31.94;37.84;99228.41;79414;1297;3011349;-69
2023/08/21 09:40:54;;;;;;;8.20;5.20;;;;;;;31.95;37.72;99226.69;79131;1297;3013451;-69
2023/08/21 09:43:21;;;;;;;12.80;5.20;;;;;;;31.98;37.82;99220.88;79491;1294;3012937;-70
2023/08/21 14:24:51;;;;;;;8.80;5.20;;;;;;;32.44;40.24;99157.98;80152;1302;3013072;-65
2023/08/21 14:27:18;;;;;;;12.10;6.00;;;;;;;32.42;40.48;99155.52;79125;1302;3019546;-69
2023/08/21 14:29:44;;;;;;;8.30;5.50;;;;;;;32.47;40.23;99155.70;79178;1301;3011913;-67
2023/08/21 14:32:13;;;;;;;11.10;5.90;;;;;;;32.49;40.42;99148.46;77881;1306;3027256;-66
2023/08/21 14:34:39;;;;;;;10.70;5.90;;;;;;;32.84;39.91;99149.45;79226;1301;3018446;-65
2023/08/21 14:37:06;;;;;;;10.20;5.70;;;;;;;33.04;39.27;99150.75;77317;1304;3011806;-63
2023/08/21 14:39:34;;;;;;;13.00;6.20;;;;;;;33.06;39.27;99152.18;78084;1298;3026686;-64
2023/08/21 14:42:01;;;;;;;13.30;5.70;;;;;;;33.17;39.05;99152.30;79419;1301;3013276;-67
2023/08/21 14:44:28;;;;;;;9.00;5.80;;;;;;;33.13;39.13;99156.09;79424;1301;3011615;-70
2023/08/21 14:46:55;;;;;;;14.10;6.40;;;;;;;33.14;39.30;99149.20;78349;1298;3025800;-66
2023/08/21 14:49:22;;;;;;;9.30;6.00;;;;;;;33.13;39.30;99149.55;79423;1298;3013225;-68
2023/08/21 14:51:49;;;;;;;9.90;6.20;;;;;;;33.02;38.95;99149.57;79339;1297;3011567;-64
2023/08/21 14:54:17;;;;;;;9.30;5.30;;;;;;;33.08;39.03;99151.56;78138;1298;3026023;-64
2023/08/21 14:56:44;;;;;;;12.70;5.40;;;;;;;33.12;38.76;99155.27;79675;1298;3013751;-66
2023/08/21 14:59:10;;;;;;;13.80;5.70;;;;;;;33.05;39.10;99155.38;79465;1297;3013391;-68
2023/08/21 15:01:39;;;;;;;9.80;5.80;;;;;;;33.13;38.12;99157.64;78338;1301;3028552;-67
2023/08/21 15:04:06;;;;;;;8.80;5.40;;;;;;;33.09;38.09;99157.48;79556;1301;3013791;-66
2023/08/21 15:06:33;;;;;;;9.20;5.10;;;;;;;33.07;38.38;99154.60;79652;1299;3013166;-71
2023/08/21 15:09:01;;;;;;;8.00;5.20;;;;;;;33.14;38.04;99160.91;78267;1298;3049418;-67
2023/08/21 15:11:28;;;;;;;9.80;5.50;;;;;;;33.17;37.80;99162.64;79486;1301;3013062;-65
2023/08/21 15:13:55;;;;;;;11.40;5.50;;;;;;;33.02;37.80;99159.45;79560;1301;3013208;-68
2023/08/21 15:16:24;;;;;;;8.10;5.20;;;;;;;32.71;37.92;99163.64;78349;1301;3018344;-68
2023/08/21 15:18:52;;;;;;;9.00;5.20;;;;;;;32.65;38.32;99166.79;79474;1298;3018467;-65
2023/08/21 15:21:19;;;;;;;11.40;5.20;;;;;;;32.65;38.32;99168.16;79582;1298;3011485;-65
2023/08/21 15:23:47;;;;;;;12.20;6.10;;;;;;;32.59;38.45;99172.56;78263;1301;3049613;-66
2023/08/21 15:26:14;;;;;;;9.60;5.90;;;;;;;32.34;39.22;99176.61;79555;1299;3012900;-65
2023/08/21 15:28:40;;;;;;;8.50;5.30;;;;;;;32.35;39.65;99174.63;79377;1298;3014029;-66
2023/08/21 15:31:08;;;;;;;17.40;5.70;;;;;;;32.32;39.67;99172.63;78062;1301;3028393;-72
2023/08/21 15:33:35;;;;;;;8.60;5.60;;;;;;;32.32;39.91;99175.66;79472;1301;3013562;-69
2023/08/21 15:36:01;;;;;;;9.70;5.80;;;;;;;32.41;39.93;99175.33;79391;1298;3011740;-68
2023/08/21 15:38:29;;;;;;;12.40;6.20;;;;;;;32.50;39.89;99177.63;78349;1301;3017252;-64
2023/08/21 15:40:56;;;;;;;15.10;6.00;;;;;;;32.48;40.25;99180.42;79542;1299;3013267;-66
2023/08/21 15:43:22;;;;;;;10.30;6.50;;;;;;;32.18;40.93;99185.39;79477;1300;3013752;-66
2023/08/21 15:45:53;;;;;;;10.90;6.50;;;;;;;32.13;41.13;99185.48;78222;1295;3028425;-67
2023/08/21 15:48:20;;;;;;;11.60;6.50;;;;;;;32.10;41.09;99186.59;79349;1295;3011584;-63